Time;durP1;ratioP1;P1;durP2;ratioP2;P2;SDS_P1;SDS_P2;PMS_P1;PMS_P2;Temp;Humidity;BMP_temperature;BMP_pressure;BME280_temperature;BME280_humidity;BME280_pressure;Samples;Min_cycle;Max_cycle;Signal;HPM_P1;HPM_P2
2021/04/16 00:01:28;;;;;;;;;;;20.50;36.00;;;;;;5040692;28;19924;-77
2021/04/16 00:03:54;;;;;;;;;;;20.40;36.60;;;;;;5052753;28;19931;-76
2021/04/16 00:06:20;;;;;;;;;;;20.40;37.30;;;;;;5044466;28;19913;-76
2021/04/16 00:08:47;;;;;;;;;;;20.40;35.70;;;;;;5043074;28;20264;-76
2021/04/16 00:11:14;;;;;;;;;;;20.30;36.20;;;;;;5045626;28;19916;-77
2021/04/16 00:13:41;;;;;;;;;;;20.20;37.20;;;;;;5057518;28;19905;-77
2021/04/16 00:16:08;;;;;;;;;;;19.90;36.90;;;;;;5056199;28;19958;-78
2021/04/16 00:18:34;;;;;;;;;;;20.10;38.30;;;;;;5053002;28;19923;-76
2021/04/16 00:21:01;;;;;;;;;;;20.00;38.60;;;;;;5051821;28;19920;-76
2021/04/16 00:23:27;;;;;;;;;;;19.80;38.70;;;;;;5044419;28;19928;-76
2021/04/16 00:25:54;;;;;;;;;;;19.70;39.10;;;;;;5052263;28;19908;-77
2021/04/16 00:28:22;;;;;;;;;;;19.40;38.90;;;;;;5052906;28;19917;-77
2021/04/16 00:30:59;;;;;;;;;;;19.30;39.60;;;;;;5032033;28;19908;-76
2021/04/16 00:33:26;;;;;;;;;;;19.20;40.30;;;;;;5054539;28;19909;-77
2021/04/16 00:35:52;;;;;;;;;;;18.90;39.90;;;;;;5064698;28;19912;-76
2021/04/16 00:38:18;;;;;;;;;;;18.80;41.20;;;;;;5072589;28;19935;-76
2021/04/16 00:40:46;;;;;;;;;;;18.60;41.40;;;;;;5066399;28;19928;-75
2021/04/16 00:43:13;;;;;;;;;;;18.50;42.00;;;;;;5063322;28;19948;-77
2021/04/16 00:45:40;;;;;;;;;;;18.40;43.20;;;;;;5052707;28;19919;-78
2021/04/16 00:48:07;;;;;;;;;;;18.30;43.10;;;;;;5048824;28;19913;-76
2021/04/16 00:50:41;;;;;;;;;;;18.30;43.40;;;;;;5055658;28;19954;-77
2021/04/16 00:53:07;;;;;;;;;;;18.20;44.00;;;;;;5042563;28;19909;-76
2021/04/16 00:55:33;;;;;;;;;;;18.20;43.70;;;;;;5052554;28;19920;-77
2021/04/16 00:57:59;;;;;;;;;;;18.10;44.10;;;;;;5052111;28;19912;-77
2021/04/16 01:00:26;;;;;;;;;;;18.00;44.00;;;;;;5054408;28;19995;-76
2021/04/16 01:02:53;;;;;;;;;;;17.90;44.20;;;;;;5035177;28;19920;-77
2021/04/16 01:05:19;;;;;;;;;;;17.90;44.70;;;;;;5059763;28;19919;-77
2021/04/16 01:07:46;;;;;;;;;;;17.80;44.40;;;;;;5038579;28;20006;-77
2021/04/16 01:10:13;;;;;;;;;;;17.70;45.10;;;;;;5056142;28;19913;-77
2021/04/16 01:12:39;;;;;;;;;;;17.80;45.00;;;;;;5065843;28;19934;-77
2021/04/16 01:15:15;;;;;;;;;;;17.70;45.50;;;;;;5056717;28;19909;-77
2021/04/16 01:17:43;;;;;;;;;;;17.70;45.80;;;;;;5054999;28;20258;-78
2021/04/16 01:20:19;;;;;;;;;;;17.50;46.00;;;;;;5055340;28;20235;-75
2021/04/16 01:23:02;;;;;;;;;;;17.60;46.10;;;;;;5049490;28;20548;-76
2021/04/16 01:25:29;;;;;;;;;;;17.50;45.90;;;;;;5051439;28;19968;-77
2021/04/16 01:27:55;;;;;;;;;;;17.60;45.90;;;;;;5046380;28;19912;-76
2021/04/16 01:30:27;;;;;;;;;;;17.50;45.60;;;;;;5055173;28;19915;-77
2021/04/16 01:32:53;;;;;;;;;;;17.50;45.90;;;;;;5035696;28;19916;-76
2021/04/16 01:35:28;;;;;;;;;;;17.50;45.50;;;;;;5048432;28;20330;-76
2021/04/16 01:37:54;;;;;;;;;;;17.50;45.90;;;;;;5049719;28;20003;-77
2021/04/16 01:40:21;;;;;;;;;;;17.50;45.40;;;;;;5035523;28;19932;-79
2021/04/16 01:42:47;;;;;;;;;;;17.50;45.50;;;;;;5054876;28;20353;-79
2021/04/16 01:45:23;;;;;;;;;;;17.40;45.40;;;;;;5054948;28;20046;-78
2021/04/16 01:47:56;;;;;;;;;;;17.40;45.80;;;;;;5051914;28;20372;-77
2021/04/16 01:50:23;;;;;;;;;;;17.30;45.30;;;;;;5052000;28;19949;-78
2021/04/16 01:52:49;;;;;;;;;;;17.20;45.50;;;;;;5050717;28;19970;-78
2021/04/16 01:55:15;;;;;;;;;;;17.10;46.00;;;;;;5037852;28;19987;-76
2021/04/16 01:57:41;;;;;;;;;;;17.00;46.50;;;;;;5056414;28;20346;-78
2021/04/16 02:00:12;;;;;;;;;;;16.80;46.50;;;;;;5047308;28;19931;-74
2021/04/16 02:02:38;;;;;;;;;;;16.60;47.00;;;;;;5036872;28;19909;-76
2021/04/16 02:05:05;;;;;;;;;;;16.60;47.50;;;;;;5056232;28;19915;-77
2021/04/16 02:07:31;;;;;;;;;;;16.50;47.90;;;;;;5046819;28;19909;-77
2021/04/16 02:09:57;;;;;;;;;;;16.50;47.40;;;;;;5035003;28;19936;-76
2021/04/16 02:12:25;;;;;;;;;;;16.40;48.10;;;;;;5055342;28;19967;-76
2021/04/16 02:14:52;;;;;;;;;;;16.40;48.50;;;;;;5041140;28;20380;-77
2021/04/16 02:17:20;;;;;;;;;;;16.30;49.00;;;;;;5045822;28;19916;-76
2021/04/16 02:19:46;;;;;;;;;;;16.10;49.40;;;;;;5049524;28;19988;-77
2021/04/16 02:22:17;;;;;;;;;;;16.00;50.30;;;;;;5052388;28;19909;-77
2021/04/16 02:24:43;;;;;;;;;;;15.90;50.10;;;;;;5046186;28;19923;-77
2021/04/16 02:27:11;;;;;;;;;;;15.80;50.30;;;;;;5027954;28;19960;-78
2021/04/16 02:29:37;;;;;;;;;;;15.70;50.60;;;;;;5042689;28;20220;-77
2021/04/16 02:32:04;;;;;;;;;;;15.70;51.10;;;;;;5053739;28;19904;-77
2021/04/16 02:34:30;;;;;;;;;;;15.60;51.40;;;;;;5065239;28;19909;-77
2021/04/16 02:36:58;;;;;;;;;;;15.60;51.30;;;;;;5053513;28;19916;-77
2021/04/16 02:39:25;;;;;;;;;;;15.40;50.90;;;;;;5054489;28;19912;-76
2021/04/16 02:41:51;;;;;;;;;;;15.40;52.30;;;;;;5024031;28;19909;-76
2021/04/16 02:44:17;;;;;;;;;;;15.30;51.00;;;;;;5045035;28;19974;-76
2021/04/16 02:46:43;;;;;;;;;;;15.40;52.40;;;;;;5049853;28;19915;-76
2021/04/16 02:49:09;;;;;;;;;;;15.40;52.10;;;;;;5041446;28;19909;-77
2021/04/16 02:51:35;;;;;;;;;;;15.20;51.20;;;;;;5055312;28;20289;-76
2021/04/16 02:54:02;;;;;;;;;;;15.20;52.00;;;;;;5055850;28;19923;-76
2021/04/16 02:56:28;;;;;;;;;;;15.30;52.50;;;;;;5047784;28;19916;-76
2021/04/16 02:58:56;;;;;;;;;;;15.10;52.90;;;;;;5036267;28;19905;-76
2021/04/16 03:01:22;;;;;;;;;;;14.90;51.80;;;;;;5035185;28;19927;-76
2021/04/16 03:03:48;;;;;;;;;;;14.90;52.80;;;;;;5035338;28;19919;-76
2021/04/16 03:06:14;;;;;;;;;;;14.90;53.10;;;;;;5035202;28;20274;-75
2021/04/16 03:08:40;;;;;;;;;;;14.80;52.50;;;;;;5035342;28;20000;-76
2021/04/16 03:11:07;;;;;;;;;;;14.80;53.50;;;;;;5044308;28;19913;-76
2021/04/16 03:13:33;;;;;;;;;;;14.90;53.70;;;;;;5054052;28;19908;-76
2021/04/16 03:16:00;;;;;;;;;;;14.80;54.00;;;;;;5047377;28;19908;-75
2021/04/16 03:18:26;;;;;;;;;;;14.70;53.20;;;;;;5052857;28;19959;-76
2021/04/16 03:20:53;;;;;;;;;;;14.60;54.50;;;;;;5053553;28;20239;-76
2021/04/16 03:23:19;;;;;;;;;;;14.50;54.20;;;;;;5053961;28;19944;-76
2021/04/16 03:25:45;;;;;;;;;;;14.40;52.80;;;;;;5054566;28;20238;-76
2021/04/16 03:28:11;;;;;;;;;;;14.50;53.40;;;;;;5054061;28;19963;-76
2021/04/16 03:30:37;;;;;;;;;;;14.40;52.70;;;;;;5054428;28;20361;-75
2021/04/16 03:33:04;;;;;;;;;;;14.30;53.10;;;;;;5054137;28;19905;-76
2021/04/16 03:35:30;;;;;;;;;;;14.20;53.40;;;;;;5055553;28;19919;-77
2021/04/16 03:37:56;;;;;;;;;;;14.40;55.50;;;;;;5057269;28;20361;-76
2021/04/16 03:40:26;;;;;;;;;;;14.30;53.70;;;;;;5047483;28;19921;-75
2021/04/16 03:42:52;;;;;;;;;;;14.20;53.30;;;;;;5038494;28;20332;-76
2021/04/16 03:45:19;;;;;;;;;;;14.10;53.40;;;;;;5055907;28;20011;-76
2021/04/16 03:47:45;;;;;;;;;;;13.90;53.50;;;;;;5035479;28;19919;-76
2021/04/16 03:50:12;;;;;;;;;;;13.90;53.30;;;;;;5040754;28;19974;-76
2021/04/16 03:52:39;;;;;;;;;;;13.80;54.30;;;;;;5051820;28;19915;-77
2021/04/16 03:55:05;;;;;;;;;;;13.90;53.50;;;;;;5041089;28;19908;-76
2021/04/16 03:57:33;;;;;;;;;;;14.00;54.30;;;;;;5057409;28;19905;-76
2021/04/16 03:59:59;;;;;;;;;;;14.00;55.10;;;;;;5042504;28;20007;-76
2021/04/16 04:02:25;;;;;;;;;;;13.90;55.00;;;;;;5057979;28;19909;-76
2021/04/16 04:04:51;;;;;;;;;;;13.80;54.80;;;;;;5040829;28;19924;-76
2021/04/16 04:07:17;;;;;;;;;;;13.60;55.40;;;;;;5053648;28;19909;-76
2021/04/16 04:09:43;;;;;;;;;;;13.60;56.10;;;;;;5056396;28;19922;-75
2021/04/16 04:12:10;;;;;;;;;;;13.60;54.70;;;;;;5040753;28;19912;-75
2021/04/16 04:14:37;;;;;;;;;;;13.70;55.00;;;;;;5049700;28;19913;-77
2021/04/16 04:17:04;;;;;;;;;;;13.90;55.50;;;;;;5028104;28;19917;-76
2021/04/16 04:19:31;;;;;;;;;;;13.60;54.60;;;;;;5055730;28;19908;-76
2021/04/16 04:21:58;;;;;;;;;;;13.70;55.40;;;;;;5045118;28;20258;-76
2021/04/16 04:24:25;;;;;;;;;;;13.60;55.70;;;;;;5050139;28;19913;-76
2021/04/16 04:26:51;;;;;;;;;;;13.50;54.40;;;;;;5074419;28;19896;-76
2021/04/16 04:29:23;;;;;;;;;;;13.40;55.60;;;;;;5075040;28;19909;-76
2021/04/16 04:31:49;;;;;;;;;;;13.30;55.00;;;;;;5036582;28;19999;-76
2021/04/16 04:34:20;;;;;;;;;;;13.30;55.30;;;;;;5045347;28;19978;-77
2021/04/16 04:36:47;;;;;;;;;;;13.20;56.10;;;;;;5021222;28;19912;-76
2021/04/16 04:39:14;;;;;;;;;;;13.40;56.50;;;;;;5057735;28;19904;-76
2021/04/16 04:41:41;;;;;;;;;;;13.40;55.10;;;;;;5040675;28;19916;-76
2021/04/16 04:44:07;;;;;;;;;;;13.50;55.60;;;;;;5033189;28;19920;-76
2021/04/16 04:46:33;;;;;;;;;;;13.60;58.00;;;;;;5036483;28;19909;-77
2021/04/16 04:49:00;;;;;;;;;;;13.60;57.80;;;;;;5038777;28;19912;-77
2021/04/16 04:51:26;;;;;;;;;;;13.60;58.00;;;;;;5057403;28;19961;-76
2021/04/16 04:53:52;;;;;;;;;;;13.50;57.60;;;;;;5055684;28;19908;-77
2021/04/16 04:56:18;;;;;;;;;;;13.40;58.00;;;;;;5039186;28;19908;-76
2021/04/16 04:58:45;;;;;;;;;;;13.40;57.40;;;;;;5054475;28;20001;-77
2021/04/16 05:01:11;;;;;;;;;;;13.40;58.40;;;;;;5038644;28;19908;-77
2021/04/16 05:03:37;;;;;;;;;;;13.30;57.90;;;;;;5055529;28;19916;-76
2021/04/16 05:06:03;;;;;;;;;;;13.30;58.80;;;;;;5039476;28;19932;-77
2021/04/16 05:08:29;;;;;;;;;;;13.30;58.00;;;;;;5056512;28;19912;-77
2021/04/16 05:10:55;;;;;;;;;;;13.30;58.70;;;;;;5038112;28;20243;-76
2021/04/16 05:13:21;;;;;;;;;;;13.30;57.60;;;;;;5055368;28;20003;-77
2021/04/16 05:15:47;;;;;;;;;;;13.30;58.60;;;;;;5057778;28;19904;-76
2021/04/16 05:18:14;;;;;;;;;;;13.10;58.50;;;;;;5057596;28;19939;-76
2021/04/16 05:20:40;;;;;;;;;;;13.10;59.20;;;;;;5037570;28;19909;-76
2021/04/16 05:23:06;;;;;;;;;;;13.00;57.90;;;;;;5057028;28;19909;-76
2021/04/16 05:25:32;;;;;;;;;;;12.70;59.10;;;;;;5054724;28;19913;-76
2021/04/16 05:27:58;;;;;;;;;;;12.60;59.40;;;;;;5051248;28;19923;-76
2021/04/16 05:30:24;;;;;;;;;;;12.50;59.70;;;;;;5037576;28;20003;-76
2021/04/16 05:32:50;;;;;;;;;;;12.60;58.10;;;;;;5055220;28;19919;-76
2021/04/16 05:35:16;;;;;;;;;;;12.50;59.20;;;;;;5052228;28;19916;-76
2021/04/16 05:37:43;;;;;;;;;;;12.40;59.50;;;;;;5052299;28;19975;-76
2021/04/16 05:40:09;;;;;;;;;;;12.40;58.70;;;;;;5053852;28;19916;-76
2021/04/16 05:42:36;;;;;;;;;;;12.40;59.30;;;;;;5037881;28;19905;-76
2021/04/16 05:45:02;;;;;;;;;;;12.30;60.20;;;;;;5046393;28;19970;-76
2021/04/16 05:47:29;;;;;;;;;;;12.30;60.20;;;;;;5030784;28;19915;-76
2021/04/16 05:49:55;;;;;;;;;;;12.40;58.50;;;;;;5052731;28;19944;-76
2021/04/16 05:52:21;;;;;;;;;;;12.80;59.10;;;;;;5051073;28;19920;-76
2021/04/16 05:54:47;;;;;;;;;;;12.60;58.90;;;;;;5044792;28;20262;-77
2021/04/16 05:57:13;;;;;;;;;;;12.70;58.80;;;;;;5038782;28;19908;-76
2021/04/16 05:59:39;;;;;;;;;;;12.80;58.50;;;;;;5055324;28;19904;-76
2021/04/16 06:02:25;;;;;;;;;;;12.60;59.20;;;;;;5046033;28;19917;-77
2021/04/16 06:04:52;;;;;;;;;;;12.70;58.30;;;;;;5051426;28;19966;-76
2021/04/16 06:07:18;;;;;;;;;;;12.80;59.20;;;;;;5043972;28;20323;-76
2021/04/16 06:09:44;;;;;;;;;;;12.80;58.70;;;;;;5052054;28;19908;-76
2021/04/16 06:12:10;;;;;;;;;;;12.50;59.30;;;;;;5055720;28;19912;-76
2021/04/16 06:14:36;;;;;;;;;;;12.50;59.40;;;;;;5054899;28;19919;-76
2021/04/16 06:17:03;;;;;;;;;;;12.50;60.50;;;;;;5057435;28;19909;-77
2021/04/16 06:19:29;;;;;;;;;;;12.40;61.00;;;;;;5059324;28;19909;-76
2021/04/16 06:21:55;;;;;;;;;;;12.10;62.10;;;;;;5055922;28;19896;-76
2021/04/16 06:24:21;;;;;;;;;;;12.00;62.50;;;;;;5074009;28;19936;-76
2021/04/16 06:26:47;;;;;;;;;;;12.00;61.80;;;;;;5068527;28;19908;-76
2021/04/16 06:29:13;;;;;;;;;;;12.00;61.80;;;;;;5052331;28;20386;-76
2021/04/16 06:31:39;;;;;;;;;;;11.90;62.20;;;;;;5052512;28;19909;-76
2021/04/16 06:34:05;;;;;;;;;;;11.90;60.60;;;;;;5053638;28;19909;-76
2021/04/16 06:36:31;;;;;;;;;;;11.70;62.50;;;;;;5053888;28;20369;-77
2021/04/16 06:38:57;;;;;;;;;;;11.80;61.20;;;;;;5039662;28;19931;-76
2021/04/16 06:41:25;;;;;;;;;;;11.70;61.80;;;;;;5053287;28;19916;-76
2021/04/16 06:43:53;;;;;;;;;;;11.70;61.50;;;;;;5036071;28;19920;-76
2021/04/16 06:46:30;;;;;;;;;;;11.60;62.80;;;;;;5054799;28;19904;-76
2021/04/16 06:49:00;;;;;;;;;;;11.40;63.50;;;;;;5053809;28;19912;-77
2021/04/16 06:51:27;;;;;;;;;;;11.60;60.90;;;;;;5052310;28;19923;-76
2021/04/16 06:53:57;;;;;;;;;;;11.70;60.00;;;;;;5050694;28;19951;-75
2021/04/16 06:56:33;;;;;;;;;;;11.80;58.70;;;;;;5054104;28;20323;-76
2021/04/16 06:59:02;;;;;;;;;;;11.80;58.80;;;;;;5035804;28;20293;-76
2021/04/16 07:01:32;;;;;;;;;;;11.80;58.10;;;;;;5048127;28;20290;-76
2021/04/16 07:04:18;;;;;;;;;;;11.80;58.20;;;;;;5027040;28;19912;-76
2021/04/16 07:06:44;;;;;;;;;;;11.60;60.80;;;;;;5024824;28;19931;-76
2021/04/16 07:09:16;;;;;;;;;;;11.70;58.10;;;;;;5050369;28;19908;-76
2021/04/16 07:11:47;;;;;;;;;;;11.70;57.80;;;;;;5056269;28;19909;-76
2021/04/16 07:14:31;;;;;;;;;;;11.70;58.00;;;;;;5056206;28;19995;-77
2021/04/16 07:16:57;;;;;;;;;;;11.70;57.60;;;;;;5054745;28;19909;-76
2021/04/16 07:19:25;;;;;;;;;;;11.70;57.50;;;;;;5048885;28;19957;-76
2021/04/16 07:21:56;;;;;;;;;;;11.60;57.60;;;;;;5041542;28;19911;-75
2021/04/16 07:24:22;;;;;;;;;;;11.60;57.50;;;;;;5054617;28;19919;-75
2021/04/16 07:26:51;;;;;;;;;;;11.50;57.40;;;;;;5058650;28;19982;-75
2021/04/16 07:29:41;;;;;;;;;;;11.60;57.40;;;;;;5055429;28;20250;-75
2021/04/16 07:32:29;;;;;;;;;;;11.50;57.30;;;;;;5057810;28;19911;-76
2021/04/16 07:34:56;;;;;;;;;;;11.40;57.90;;;;;;5047885;28;20364;-75
2021/04/16 07:37:29;;;;;;;;;;;11.30;57.70;;;;;;5057228;28;19919;-75
2021/04/16 07:40:00;;;;;;;;;;;11.20;57.80;;;;;;5056047;28;19913;-75
2021/04/16 07:42:37;;;;;;;;;;;11.20;58.20;;;;;;5055497;28;19912;-75
2021/04/16 07:45:29;;;;;;;;;;;11.10;59.10;;;;;;5048638;28;19913;-76
2021/04/16 07:48:14;;;;;;;;;;;11.00;58.50;;;;;;5031588;28;19924;-76
2021/04/16 07:51:00;;;;;;;;;;;10.90;58.70;;;;;;5057300;28;19944;-76
2021/04/16 07:53:35;;;;;;;;;;;10.90;58.20;;;;;;5052426;28;19912;-76
2021/04/16 07:56:19;;;;;;;;;;;10.90;58.40;;;;;;5038766;28;19915;-76
2021/04/16 07:58:59;;;;;;;;;;;10.90;59.20;;;;;;5057458;28;19919;-76
2021/04/16 08:01:25;;;;;;;;;;;10.80;59.60;;;;;;5039103;28;19955;-76
2021/04/16 08:03:52;;;;;;;;;;;10.90;59.00;;;;;;5053150;28;19917;-76
2021/04/16 08:06:33;;;;;;;;;;;11.10;60.70;;;;;;5053699;28;20421;-76
2021/04/16 08:08:59;;;;;;;;;;;11.20;61.40;;;;;;5043271;28;20004;-75
2021/04/16 08:11:27;;;;;;;;;;;11.20;62.20;;;;;;5039894;28;19971;-76
2021/04/16 08:13:55;;;;;;;;;;;11.30;60.30;;;;;;5056021;28;19916;-77
2021/04/16 08:16:24;;;;;;;;;;;11.20;60.10;;;;;;5042728;28;19944;-77
2021/04/16 08:18:56;;;;;;;;;;;11.30;60.10;;;;;;5071416;28;19904;-76
2021/04/16 08:21:24;;;;;;;;;;;11.20;60.90;;;;;;5071911;28;19913;-76
2021/04/16 08:23:50;;;;;;;;;;;11.20;59.50;;;;;;5054605;28;19912;-77
2021/04/16 08:26:17;;;;;;;;;;;11.20;62.30;;;;;;5038263;28;20000;-77
2021/04/16 08:28:55;;;;;;;;;;;11.20;60.20;;;;;;5051857;28;19909;-76
2021/04/16 08:31:26;;;;;;;;;;;11.20;60.40;;;;;;5055695;28;19962;-75
2021/04/16 08:34:18;;;;;;;;;;;11.20;60.30;;;;;;5041947;28;19917;-76
2021/04/16 08:36:44;;;;;;;;;;;11.10;61.10;;;;;;5012354;28;20254;-76
2021/04/16 08:39:20;;;;;;;;;;;11.10;59.70;;;;;;5053281;28;19995;-76
2021/04/16 08:41:52;;;;;;;;;;;11.10;59.70;;;;;;5029027;28;19980;-75
2021/04/16 08:44:19;;;;;;;;;;;11.10;59.60;;;;;;5038323;28;19913;-75
2021/04/16 08:46:49;;;;;;;;;;;11.10;58.80;;;;;;5035670;28;19917;-76
2021/04/16 08:49:18;;;;;;;;;;;11.00;58.60;;;;;;5036532;28;19912;-76
2021/04/16 08:51:46;;;;;;;;;;;11.00;58.30;;;;;;5046665;28;19908;-75
2021/04/16 08:54:18;;;;;;;;;;;11.00;58.50;;;;;;5050543;28;20274;-77
2021/04/16 08:57:05;;;;;;;;;;;11.00;58.50;;;;;;5054140;28;19909;-76
2021/04/16 08:59:54;;;;;;;;;;;11.00;58.90;;;;;;5047937;28;19920;-76
2021/04/16 09:02:22;;;;;;;;;;;10.90;58.70;;;;;;5006936;28;19952;-76
2021/04/16 09:04:53;;;;;;;;;;;10.90;58.80;;;;;;5029778;28;19983;-76
2021/04/16 09:07:37;;;;;;;;;;;10.90;58.60;;;;;;5054199;28;19917;-77
2021/04/16 09:10:08;;;;;;;;;;;10.80;58.90;;;;;;5054195;28;19958;-76
2021/04/16 09:12:40;;;;;;;;;;;10.80;59.10;;;;;;5054112;28;19911;-77
2021/04/16 09:15:26;;;;;;;;;;;10.80;59.40;;;;;;5046995;28;20297;-76
2021/04/16 09:17:58;;;;;;;;;;;10.80;58.50;;;;;;5034779;28;19915;-77
2021/04/16 09:20:33;;;;;;;;;;;10.70;59.20;;;;;;5053657;28;19904;-75
2021/04/16 09:23:00;;;;;;;;;;;10.70;59.40;;;;;;5052139;28;20353;-76
2021/04/16 09:25:32;;;;;;;;;;;10.60;59.20;;;;;;5054158;28;19920;-76
2021/04/16 09:28:33;;;;;;;;;;;10.60;59.30;;;;;;5054448;28;19909;-76
2021/04/16 09:31:20;;;;;;;;;;;10.50;59.10;;;;;;4987562;28;19917;-76
2021/04/16 09:33:46;;;;;;;;;;;10.50;59.10;;;;;;5019816;28;19917;-77
2021/04/16 09:36:32;;;;;;;;;;;10.40;59.20;;;;;;5040092;28;19964;-76
2021/04/16 09:39:14;;;;;;;;;;;10.40;59.10;;;;;;5052669;28;19908;-76
2021/04/16 09:41:46;;;;;;;;;;;10.30;59.40;;;;;;5042934;28;21057;-76
2021/04/16 09:44:28;;;;;;;;;;;10.30;59.30;;;;;;5055076;28;19919;-76
2021/04/16 09:46:55;;;;;;;;;;;10.30;58.70;;;;;;5054036;28;19909;-76
2021/04/16 09:49:25;;;;;;;;;;;10.20;59.60;;;;;;5052351;28;19944;-76
2021/04/16 09:51:55;;;;;;;;;;;10.20;59.70;;;;;;5037244;28;19945;-77
2021/04/16 09:54:21;;;;;;;;;;;10.20;59.70;;;;;;5033188;28;20402;-77
2021/04/16 09:57:02;;;;;;;;;;;10.20;59.60;;;;;;5054133;28;19956;-77
2021/04/16 09:59:32;;;;;;;;;;;10.10;59.90;;;;;;5053661;28;19961;-76
2021/04/16 10:02:20;;;;;;;;;;;10.10;59.80;;;;;;5048223;28;19909;-76
2021/04/16 10:05:02;;;;;;;;;;;10.00;60.10;;;;;;5054991;28;20027;-77
2021/04/16 10:07:33;;;;;;;;;;;10.00;59.80;;;;;;5053780;28;20357;-77
2021/04/16 10:10:14;;;;;;;;;;;9.90;59.60;;;;;;5038381;28;19915;-77
2021/04/16 10:12:40;;;;;;;;;;;9.90;59.60;;;;;;5047712;28;19936;-76
2021/04/16 10:15:18;;;;;;;;;;;9.90;60.70;;;;;;5072104;28;19908;-76
2021/04/16 10:17:55;;;;;;;;;;;9.90;59.70;;;;;;5068620;28;19928;-76
2021/04/16 10:20:23;;;;;;;;;;;9.90;59.90;;;;;;5055656;28;19908;-76
2021/04/16 10:22:58;;;;;;;;;;;9.80;59.90;;;;;;5033887;28;20342;-77
2021/04/16 12:39:18;;;;;;;;;;;9.60;60.20;;;;;;5041236;28;19982;-77
2021/04/16 12:41:50;;;;;;;;;;;9.70;60.20;;;;;;5050663;28;19909;-76
2021/04/16 12:44:29;;;;;;;;;;;9.60;60.20;;;;;;5044745;28;19944;-77
2021/04/16 12:46:56;;;;;;;;;;;9.60;60.40;;;;;;5038333;28;19908;-77
2021/04/16 12:49:26;;;;;;;;;;;9.60;60.50;;;;;;5055675;28;19915;-76
2021/04/16 12:51:53;;;;;;;;;;;9.60;60.80;;;;;;5053293;28;19924;-76
2021/04/16 12:54:19;;;;;;;;;;;9.70;61.00;;;;;;5047637;28;19909;-77
2021/04/16 12:56:45;;;;;;;;;;;9.70;60.90;;;;;;5038916;28;19909;-76
2021/04/16 12:59:22;;;;;;;;;;;9.70;61.00;;;;;;5038242;28;20299;-77
2021/04/16 13:01:49;;;;;;;;;;;9.80;61.00;;;;;;5037436;28;19908;-77
2021/04/16 13:04:16;;;;;;;;;;;9.80;61.00;;;;;;5039417;28;19965;-77
2021/04/16 13:06:44;;;;;;;;;;;9.80;61.10;;;;;;5053051;28;19977;-77
2021/04/16 13:09:12;;;;;;;;;;;9.90;61.20;;;;;;5055551;28;19989;-76
2021/04/16 13:11:38;;;;;;;;;;;9.90;61.60;;;;;;5040543;28;19905;-76
2021/04/16 13:14:05;;;;;;;;;;;9.90;61.50;;;;;;5054000;28;19924;-77
2021/04/16 13:16:31;;;;;;;;;;;9.90;61.90;;;;;;5038768;28;19909;-77
2021/04/16 13:18:59;;;;;;;;;;;9.90;61.50;;;;;;5035266;28;19913;-76
2021/04/16 13:21:30;;;;;;;;;;;9.90;61.30;;;;;;5036919;28;19908;-77
2021/04/16 13:23:57;;;;;;;;;;;9.90;61.60;;;;;;5054015;28;19917;-77
2021/04/16 13:26:25;;;;;;;;;;;9.90;61.30;;;;;;5030953;28;19923;-77
2021/04/16 13:28:51;;;;;;;;;;;9.80;61.40;;;;;;5040612;28;20049;-77
2021/04/16 13:31:17;;;;;;;;;;;9.80;61.50;;;;;;5040644;28;19909;-77
2021/04/16 13:33:44;;;;;;;;;;;9.90;61.60;;;;;;5051220;28;19919;-77
2021/04/16 13:36:15;;;;;;;;;;;9.80;62.80;;;;;;5033186;28;19916;-76
2021/04/16 13:38:41;;;;;;;;;;;9.80;62.40;;;;;;5048857;28;20023;-77
2021/04/16 13:41:07;;;;;;;;;;;9.80;63.70;;;;;;5036861;28;19931;-77
2021/04/16 13:43:34;;;;;;;;;;;9.80;63.00;;;;;;5053715;28;20322;-77
2021/04/16 13:46:04;;;;;;;;;;;9.90;61.80;;;;;;5048644;28;19932;-76
2021/04/16 13:48:31;;;;;;;;;;;10.10;62.40;;;;;;5045563;28;20015;-76
2021/04/16 13:50:57;;;;;;;;;;;10.10;61.90;;;;;;5053343;28;19919;-76
2021/04/16 13:53:23;;;;;;;;;;;10.10;62.30;;;;;;5040617;28;19929;-76
2021/04/16 13:55:49;;;;;;;;;;;10.10;61.90;;;;;;5047756;28;19913;-76
2021/04/16 13:58:15;;;;;;;;;;;10.20;62.30;;;;;;5055153;28;19905;-77
2021/04/16 14:00:42;;;;;;;;;;;10.20;61.80;;;;;;5056950;28;19909;-76
2021/04/16 14:03:08;;;;;;;;;;;10.20;63.40;;;;;;5065208;28;19908;-77
2021/04/16 14:05:34;;;;;;;;;;;10.20;64.20;;;;;;5047866;28;19919;-77
2021/04/16 14:08:02;;;;;;;;;;;10.30;63.10;;;;;;5052696;28;19959;-77
2021/04/16 14:10:28;;;;;;;;;;;10.30;63.40;;;;;;5037837;28;19909;-77
2021/04/16 14:12:54;;;;;;;;;;;10.40;64.50;;;;;;5045129;28;19975;-77
2021/04/16 14:15:21;;;;;;;;;;;10.40;63.70;;;;;;5052545;28;19981;-77
2021/04/16 14:17:49;;;;;;;;;;;10.40;64.10;;;;;;5042812;28;19952;-76
2021/04/16 14:20:21;;;;;;;;;;;10.60;63.60;;;;;;5047455;28;19909;-77
2021/04/16 14:22:49;;;;;;;;;;;10.60;63.60;;;;;;5029467;28;21374;-77
2021/04/16 14:25:26;;;;;;;;;;;10.70;63.60;;;;;;5039646;28;19916;-76
2021/04/16 14:27:52;;;;;;;;;;;10.70;64.40;;;;;;5047583;28;19909;-77
2021/04/16 14:30:21;;;;;;;;;;;10.80;63.10;;;;;;5053917;28;19978;-77
2021/04/16 14:32:48;;;;;;;;;;;11.00;62.80;;;;;;5047979;28;19909;-76
2021/04/16 14:35:14;;;;;;;;;;;11.00;63.20;;;;;;5050139;28;19948;-76
2021/04/16 14:37:43;;;;;;;;;;;11.10;62.60;;;;;;5049951;28;19908;-77
2021/04/16 14:40:10;;;;;;;;;;;11.30;62.40;;;;;;5049832;28;19909;-76
2021/04/16 14:42:36;;;;;;;;;;;11.30;62.40;;;;;;5034497;28;19920;-75
2021/04/16 14:45:04;;;;;;;;;;;11.50;62.70;;;;;;5052665;28;20307;-76
2021/04/16 14:47:30;;;;;;;;;;;11.50;63.30;;;;;;5045803;28;20004;-76
2021/04/16 14:49:56;;;;;;;;;;;11.60;63.00;;;;;;5048734;28;19995;-76
2021/04/16 14:52:23;;;;;;;;;;;11.40;64.20;;;;;;5052373;28;19967;-76
2021/04/16 14:54:50;;;;;;;;;;;11.30;64.80;;;;;;5054373;28;20322;-75
2021/04/16 14:57:27;;;;;;;;;;;11.50;64.20;;;;;;5054445;28;20278;-76
2021/04/16 14:59:53;;;;;;;;;;;11.60;64.20;;;;;;5049524;28;19923;-75
2021/04/16 15:02:20;;;;;;;;;;;11.60;64.90;;;;;;5053039;28;19952;-75
2021/04/16 15:04:46;;;;;;;;;;;11.80;63.00;;;;;;5040536;28;19920;-75
2021/04/16 15:07:12;;;;;;;;;;;11.90;63.00;;;;;;5044860;28;20268;-76
2021/04/16 15:09:39;;;;;;;;;;;12.00;63.00;;;;;;5042618;28;19952;-76
2021/04/16 15:12:05;;;;;;;;;;;12.10;63.00;;;;;;5052071;28;19913;-76
2021/04/16 15:14:31;;;;;;;;;;;12.30;62.60;;;;;;5052017;28;19908;-76
2021/04/16 15:16:58;;;;;;;;;;;12.20;63.50;;;;;;5037004;28;19920;-76
2021/04/16 15:19:32;;;;;;;;;;;12.30;63.30;;;;;;5046805;28;19920;-76
2021/04/16 15:22:04;;;;;;;;;;;12.40;63.10;;;;;;5049669;28;20422;-76
2021/04/16 15:24:30;;;;;;;;;;;12.60;62.80;;;;;;5036489;28;20360;-76
2021/04/16 15:26:57;;;;;;;;;;;12.70;62.40;;;;;;5048557;28;20009;-76
2021/04/16 15:29:27;;;;;;;;;;;12.70;62.70;;;;;;5047494;28;20059;-76
2021/04/16 15:31:53;;;;;;;;;;;12.80;62.20;;;;;;5056050;28;19936;-76
2021/04/16 15:47:55;;;;;;;;;;;12.90;62.90;;;;;;5059078;28;19966;-77
2021/04/16 15:50:23;;;;;;;;;;;13.10;61.70;;;;;;5059724;28;19999;-76
2021/04/16 15:52:49;;;;;;;;;;;13.10;62.20;;;;;;5061748;28;20339;-76
2021/04/16 15:55:16;;;;;;;;;;;13.00;62.30;;;;;;5057557;28;19905;-76
2021/04/16 15:57:43;;;;;;;;;;;12.80;63.00;;;;;;5088440;28;19972;-76
2021/04/16 16:00:13;;;;;;;;;;;12.90;62.70;;;;;;5093832;28;19904;-76
2021/04/16 16:02:39;;;;;;;;;;;13.10;62.10;;;;;;5077764;28;19915;-76
2021/04/16 16:05:06;;;;;;;;;;;13.20;61.90;;;;;;5066555;28;20115;-77
2021/04/16 16:07:32;;;;;;;;;;;13.00;62.40;;;;;;5057419;28;20000;-76
2021/04/16 16:09:59;;;;;;;;;;;13.20;62.60;;;;;;5057391;28;20287;-77
2021/04/16 16:12:25;;;;;;;;;;;13.20;61.80;;;;;;5057498;28;19949;-76
2021/04/16 16:14:58;;;;;;;;;;;13.10;62.10;;;;;;5057480;28;19905;-77
2021/04/16 16:17:33;;;;;;;;;;;12.90;62.60;;;;;;5048280;28;19909;-76
2021/04/16 16:19:59;;;;;;;;;;;12.90;63.20;;;;;;5037446;28;19905;-76
2021/04/16 16:22:25;;;;;;;;;;;12.80;63.20;;;;;;5037256;28;19958;-76
2021/04/16 16:24:51;;;;;;;;;;;12.90;63.10;;;;;;5037266;28;20010;-77
2021/04/16 16:27:19;;;;;;;;;;;12.90;62.60;;;;;;5037257;28;19971;-76
2021/04/16 16:29:46;;;;;;;;;;;12.90;63.90;;;;;;5021263;28;20066;-77
2021/04/16 16:32:14;;;;;;;;;;;12.90;63.60;;;;;;5054539;28;19905;-76
2021/04/16 16:34:40;;;;;;;;;;;13.00;63.90;;;;;;5057990;28;19905;-77
2021/04/16 16:37:06;;;;;;;;;;;13.10;62.90;;;;;;5056935;28;19913;-77
2021/04/16 16:39:32;;;;;;;;;;;13.20;62.80;;;;;;5056886;28;20242;-76
2021/04/16 16:41:59;;;;;;;;;;;13.20;63.20;;;;;;5039347;28;20233;-77
2021/04/16 16:44:27;;;;;;;;;;;13.30;62.80;;;;;;5056390;28;19912;-76
2021/04/16 16:46:54;;;;;;;;;;;13.40;62.60;;;;;;5056638;28;19917;-77
2021/04/16 16:49:21;;;;;;;;;;;13.40;62.10;;;;;;5039439;28;19904;-77
2021/04/16 16:51:48;;;;;;;;;;;13.60;62.20;;;;;;5056557;28;20000;-76
2021/04/16 16:54:15;;;;;;;;;;;13.70;62.10;;;;;;5039336;28;20341;-76
2021/04/16 16:56:41;;;;;;;;;;;13.60;61.70;;;;;;5056041;28;19905;-77